createdAt,value
2018-06-18T00:00:05.559Z,23.68
2018-06-18T00:05:10.423Z,23.17
2018-06-18T00:07:41.121Z,23.15
2018-06-18T00:10:10.833Z,23.31
2018-06-18T00:12:40.520Z,23.32
2018-06-18T00:15:10.546Z,23.39
2018-06-18T00:17:40.305Z,23.21
2018-06-18T00:20:10.003Z,23.26
2018-06-18T00:22:39.822Z,23.13
2018-06-18T00:25:09.559Z,23.20
2018-06-18T00:27:39.240Z,23.25
2018-06-18T00:30:08.615Z,22.97
2018-06-18T00:32:38.171Z,22.80
2018-06-18T00:35:07.898Z,22.94
2018-06-18T00:37:38.137Z,23.10
2018-06-18T00:40:07.911Z,23.15
2018-06-18T00:42:37.619Z,23.15
2018-06-18T00:45:07.131Z,23.49
2018-06-18T00:47:37.629Z,23.60
2018-06-18T00:50:07.438Z,23.55
2018-06-18T00:52:37.113Z,23.61
2018-06-18T00:55:06.800Z,23.80
2018-06-18T00:57:37.509Z,23.95
2018-06-18T01:00:06.935Z,23.96
2018-06-18T01:02:36.156Z,24.16
2018-06-18T01:05:05.752Z,24.19
2018-06-18T01:07:35.605Z,24.17
2018-06-18T01:10:05.411Z,24.25
2018-06-18T01:12:35.195Z,23.96
2018-06-18T01:20:29.831Z,23.89
2018-06-18T01:23:10.561Z,23.73
2018-06-18T01:28:15.620Z,23.95
2018-06-18T01:30:45.176Z,23.94
2018-06-18T01:33:14.886Z,23.91
2018-06-18T01:38:19.481Z,24.06
2018-06-18T01:40:48.852Z,23.88
2018-06-18T01:43:19.079Z,24.17
2018-06-18T01:45:48.775Z,24.07
2018-06-18T01:48:18.423Z,24.05
2018-06-18T01:53:24.966Z,24.06
2018-06-18T01:55:54.536Z,24.34
2018-06-18T01:58:24.208Z,24.53
2018-06-18T02:03:29.764Z,24.42
2018-06-18T02:05:59.949Z,24.50
2018-06-18T02:08:29.626Z,24.40
2018-06-18T02:10:59.393Z,24.58
2018-06-18T02:13:29.083Z,24.68
2018-06-18T02:15:59.389Z,24.78
2018-06-18T02:18:29.025Z,24.75
2018-06-18T02:20:58.700Z,24.84
2018-06-18T02:23:28.046Z,24.92
2018-06-18T02:26:01.101Z,25.14
2018-06-18T02:28:36.175Z,24.56
2018-06-18T02:31:11.271Z,24.68
2018-06-18T02:33:46.245Z,24.77
2018-06-18T02:36:21.268Z,24.79
2018-06-18T02:38:51.900Z,25.25
2018-06-18T02:41:22.168Z,25.06
2018-06-18T02:43:52.301Z,24.99
2018-06-18T02:46:21.940Z,24.80
2018-06-18T02:48:51.594Z,25.06
2018-06-18T02:51:22.339Z,24.97
2018-06-18T02:53:52.020Z,24.86
2018-06-18T02:56:27.988Z,25.16
2018-06-18T02:58:57.737Z,24.57
2018-06-18T03:01:27.372Z,24.77
2018-06-18T03:06:32.556Z,24.83
2018-06-18T03:09:02.209Z,25.00
2018-06-18T03:11:33.540Z,25.05
2018-06-18T03:14:03.365Z,24.96
2018-06-18T03:16:33.074Z,24.93
2018-06-18T03:19:07.986Z,24.95
2018-06-18T03:21:44.083Z,24.61
2018-06-18T03:24:18.931Z,24.32
2018-06-18T03:26:54.604Z,24.42
2018-06-18T03:29:26.067Z,24.55
2018-06-18T03:31:56.287Z,24.45
2018-06-18T03:34:26.158Z,24.32
2018-06-18T03:36:56.595Z,24.43
2018-06-18T03:39:27.072Z,24.67
2018-06-18T03:41:56.849Z,24.78
2018-06-18T03:44:46.276Z,24.80
2018-06-18T03:47:21.558Z,24.51
2018-06-18T03:49:52.173Z,24.57
2018-06-18T03:52:21.767Z,24.66
2018-06-18T03:54:54.027Z,24.61
2018-06-18T03:57:23.832Z,24.93
2018-06-18T03:59:53.514Z,24.87
2018-06-18T04:02:36.170Z,24.77
2018-06-18T04:05:11.222Z,24.71
2018-06-18T04:08:11.639Z,24.81
2018-06-18T04:10:46.546Z,24.80
2018-06-18T04:13:16.412Z,24.91
2018-06-18T04:15:48.813Z,24.83
2018-06-18T04:20:54.112Z,25.16
2018-06-18T04:23:24.257Z,25.50
2018-06-18T04:28:29.568Z,25.50
2018-06-18T04:30:59.258Z,25.53
2018-06-18T04:33:29.055Z,25.47
2018-06-18T04:35:58.600Z,25.42
2018-06-18T04:38:28.244Z,25.74
2018-06-18T04:40:57.836Z,25.54
2018-06-18T04:43:32.736Z,25.71
2018-06-18T04:46:07.348Z,25.78
2018-06-18T04:48:42.332Z,25.56
2018-06-18T04:51:12.013Z,25.52
2018-06-18T04:53:41.596Z,25.28
2018-06-18T04:56:11.296Z,25.08
2018-06-18T05:01:22.545Z,25.34
2018-06-18T05:03:52.403Z,25.06
2018-06-18T05:06:22.149Z,25.19
2018-06-18T05:09:06.034Z,25.19
2018-06-18T05:11:35.675Z,25.25
2018-06-18T05:14:05.435Z,25.23
2018-06-18T05:16:35.172Z,25.12
2018-06-18T05:19:05.325Z,24.93
2018-06-18T05:21:35.077Z,25.24
2018-06-18T05:24:04.956Z,25.35
2018-06-18T05:26:36.521Z,25.25
2018-06-18T05:29:06.179Z,25.52
2018-06-18T05:31:35.967Z,25.42
2018-06-18T05:34:06.108Z,25.42
2018-06-18T05:36:35.772Z,25.27
2018-06-18T05:39:08.082Z,25.44
2018-06-18T05:41:37.927Z,25.58
2018-06-18T05:44:07.522Z,25.58
2018-06-18T05:46:37.520Z,25.63
2018-06-18T05:49:07.305Z,25.62
2018-06-18T05:51:36.911Z,25.60
2018-06-18T05:54:06.236Z,25.68
2018-06-18T05:56:35.705Z,25.88
2018-06-18T05:59:05.056Z,26.02
2018-06-18T06:01:41.589Z,25.97
2018-06-18T06:04:11.348Z,25.78
2018-06-18T06:06:41.010Z,26.13
2018-06-18T06:09:12.323Z,26.03
2018-06-18T06:11:42.127Z,26.14
2018-06-18T06:14:11.690Z,26.41
2018-06-18T06:16:40.993Z,26.37
2018-06-18T06:19:10.770Z,26.45
2018-06-18T06:21:40.551Z,26.67
2018-06-18T06:24:10.293Z,26.63
2018-06-18T06:26:39.690Z,26.60
2018-06-18T06:29:09.284Z,26.85
2018-06-18T06:31:39.006Z,26.85
2018-06-18T06:34:08.887Z,27.12
2018-06-18T06:36:38.475Z,26.90
2018-06-18T06:39:09.854Z,26.99
2018-06-18T06:41:40.729Z,27.33
2018-06-18T06:44:11.263Z,27.52
2018-06-18T06:46:40.958Z,27.95
2018-06-18T06:49:10.836Z,28.14
2018-06-18T06:51:40.598Z,28.10
2018-06-18T06:54:12.220Z,27.98
2018-06-18T06:56:41.895Z,28.10
2018-06-18T06:59:11.636Z,28.16
2018-06-18T07:01:41.274Z,28.01
2018-06-18T07:04:11.049Z,27.84
2018-06-18T07:06:40.689Z,27.89
2018-06-18T07:09:11.903Z,27.80
2018-06-18T07:11:42.423Z,27.56
2018-06-18T07:14:12.180Z,27.73
2018-06-18T07:16:41.819Z,28.11
2018-06-18T07:19:11.627Z,28.35
2018-06-18T07:21:42.219Z,27.98
2018-06-18T07:24:11.665Z,28.40
2018-06-18T07:26:41.343Z,28.61
2018-06-18T07:29:11.165Z,28.71
2018-06-18T07:31:40.932Z,28.85
2018-06-18T07:34:10.673Z,29.14
2018-06-18T07:36:40.509Z,29.41
2018-06-18T07:39:10.233Z,29.68
2018-06-18T07:41:39.858Z,29.96
2018-06-18T07:44:09.149Z,29.97
2018-06-18T07:46:38.748Z,29.22
2018-06-18T07:49:08.839Z,29.30
2018-06-18T07:51:38.847Z,29.08
2018-06-18T07:54:09.002Z,28.62
2018-06-18T07:56:38.852Z,28.42
2018-06-18T07:59:08.872Z,28.85
2018-06-18T08:01:38.931Z,29.49
2018-06-18T08:04:08.888Z,29.39
2018-06-18T08:06:38.955Z,29.57
2018-06-18T08:09:11.997Z,29.38
2018-06-18T08:14:19.203Z,29.00
2018-06-18T08:16:48.896Z,28.97
2018-06-18T08:19:18.767Z,28.59
2018-06-18T08:21:48.461Z,28.58
2018-06-18T08:24:18.190Z,28.75
2018-06-18T08:26:47.896Z,28.81
2018-06-18T08:29:17.745Z,29.07
2018-06-18T08:31:47.353Z,29.42
2018-06-18T08:34:16.988Z,29.57
2018-06-18T08:36:46.269Z,29.80
2018-06-18T08:39:15.764Z,29.95
2018-06-18T08:44:21.935Z,30.28
2018-06-18T08:46:51.766Z,30.13
2018-06-18T08:49:22.137Z,29.62
2018-06-18T08:51:57.167Z,29.26
2018-06-18T08:54:31.857Z,28.66
2018-06-18T08:57:06.682Z,29.08
2018-06-18T08:59:41.551Z,29.43
2018-06-18T09:02:11.050Z,29.72
2018-06-18T09:04:44.512Z,29.71
2018-06-18T09:07:17.112Z,29.70
2018-06-18T09:09:46.787Z,29.69
2018-06-18T09:12:16.455Z,29.84
2018-06-18T09:17:20.765Z,29.59
2018-06-18T09:19:50.478Z,29.42
2018-06-18T09:22:20.216Z,29.41
2018-06-18T09:24:49.933Z,29.81
2018-06-18T09:27:19.834Z,30.00
2018-06-18T09:29:54.623Z,30.39
2018-06-18T09:32:24.447Z,30.52
2018-06-18T09:34:53.896Z,30.52
2018-06-18T09:37:23.517Z,30.36
2018-06-18T09:39:53.312Z,30.55
2018-06-18T09:42:23.004Z,30.86
2018-06-18T09:44:52.680Z,31.06
2018-06-18T09:47:22.378Z,31.17
2018-06-18T09:49:57.244Z,30.95
2018-06-18T09:52:31.993Z,30.83
2018-06-18T09:55:06.869Z,30.88
2018-06-18T09:57:41.768Z,31.11
2018-06-18T10:00:22.489Z,30.79
2018-06-18T10:02:52.057Z,30.74
2018-06-18T10:05:21.638Z,31.12
2018-06-18T10:07:51.383Z,31.37
2018-06-18T10:10:21.153Z,31.53
2018-06-18T10:12:50.956Z,31.54
2018-06-18T10:15:20.618Z,31.80
2018-06-18T10:20:25.952Z,31.85
2018-06-18T10:22:55.400Z,31.91
2018-06-18T10:25:24.913Z,32.01
2018-06-18T10:27:54.504Z,31.73
2018-06-18T10:30:24.106Z,32.02
2018-06-18T10:32:58.987Z,32.20
2018-06-18T10:35:33.920Z,31.87
2018-06-18T10:38:08.914Z,31.87
2018-06-18T10:40:43.639Z,31.73
2018-06-18T10:43:18.497Z,31.81
2018-06-18T10:45:48.624Z,31.61
2018-06-18T10:48:18.303Z,31.50
2018-06-18T10:50:48.397Z,31.58
2018-06-18T10:53:18.057Z,31.66
2018-06-18T10:55:47.656Z,32.09
2018-06-18T10:58:17.402Z,32.06
2018-06-18T11:00:54.101Z,32.07
2018-06-18T11:03:24.282Z,31.58
2018-06-18T11:05:59.200Z,31.73
2018-06-18T11:08:28.880Z,31.74
2018-06-18T11:10:58.522Z,31.60
2018-06-18T11:13:28.454Z,31.69
2018-06-18T11:15:58.802Z,32.12
2018-06-18T11:18:33.819Z,32.22
2018-06-18T11:21:08.734Z,32.05
2018-06-18T11:23:43.773Z,31.84
2018-06-18T11:26:18.788Z,31.90
2018-06-18T11:28:48.589Z,32.33
2018-06-18T11:31:18.238Z,32.15
2018-06-18T11:33:47.810Z,31.93
2018-06-18T11:36:17.416Z,32.01
2018-06-18T11:38:47.005Z,32.27
2018-06-18T11:41:16.581Z,32.48
2018-06-18T11:43:46.398Z,32.69
2018-06-18T11:46:16.002Z,32.33
2018-06-18T11:48:45.629Z,32.14
2018-06-18T11:53:50.779Z,32.40
2018-06-18T11:56:20.129Z,32.79
2018-06-18T11:58:55.625Z,33.17
2018-06-18T12:01:30.477Z,32.97
2018-06-18T12:04:05.378Z,32.68
2018-06-18T12:06:40.215Z,32.81
2018-06-18T12:09:15.157Z,32.81
2018-06-18T12:11:46.308Z,32.40
2018-06-18T12:14:16.832Z,32.75
2018-06-18T12:16:46.516Z,33.05
2018-06-18T12:19:15.901Z,32.92
2018-06-18T12:21:45.464Z,32.88
2018-06-18T12:24:15.640Z,32.98
2018-06-18T12:26:45.392Z,32.59
2018-06-18T12:29:15.731Z,32.57
2018-06-18T12:31:45.619Z,33.15
2018-06-18T12:34:15.783Z,33.49
2018-06-18T12:36:45.816Z,33.76
2018-06-18T12:39:15.681Z,33.61
2018-06-18T12:44:24.531Z,33.23
2018-06-18T12:46:59.530Z,33.62
2018-06-18T12:49:34.476Z,33.63
2018-06-18T12:52:09.989Z,33.64
2018-06-18T12:54:45.533Z,33.80
2018-06-18T12:57:15.886Z,34.23
2018-06-18T12:59:45.964Z,34.22
2018-06-18T13:02:25.186Z,33.91
2018-06-18T13:04:57.025Z,33.91
2018-06-18T13:07:27.252Z,33.91
2018-06-18T13:09:58.016Z,33.78
2018-06-18T13:12:28.060Z,33.44
2018-06-18T13:14:57.659Z,33.88
2018-06-18T13:17:27.356Z,34.00
2018-06-18T13:19:57.143Z,34.20
2018-06-18T13:22:26.883Z,33.79
2018-06-18T13:24:56.530Z,33.90
2018-06-18T13:27:31.435Z,34.07
2018-06-18T13:30:01.107Z,34.05
2018-06-18T13:32:30.424Z,33.65
2018-06-18T13:34:59.919Z,33.66
2018-06-18T13:37:34.431Z,33.89
2018-06-18T13:40:09.201Z,34.20
2018-06-18T13:42:43.918Z,34.70
2018-06-18T13:45:18.783Z,34.72
2018-06-18T13:47:53.413Z,34.60
2018-06-18T13:50:23.079Z,33.76
2018-06-18T13:52:52.750Z,33.30
2018-06-18T13:55:22.414Z,33.76
2018-06-18T13:57:52.151Z,33.71
2018-06-18T14:00:21.852Z,33.77
2018-06-18T14:02:51.466Z,33.81
2018-06-18T14:05:21.189Z,34.19
2018-06-18T14:07:51.073Z,33.87
2018-06-18T14:10:20.746Z,33.49
2018-06-18T14:12:50.362Z,33.49
2018-06-18T14:15:20.280Z,33.53
2018-06-18T14:17:49.879Z,33.31
2018-06-18T14:20:27.031Z,33.29
2018-06-18T14:22:56.503Z,33.24
2018-06-18T14:25:26.097Z,33.44
2018-06-18T14:27:55.758Z,33.71
2018-06-18T14:30:30.606Z,34.22
2018-06-18T14:33:05.710Z,34.32
2018-06-18T14:35:40.407Z,33.88
2018-06-18T14:38:15.291Z,33.76
2018-06-18T14:40:44.874Z,33.55
2018-06-18T14:43:14.765Z,33.47
2018-06-18T14:45:44.575Z,33.56
2018-06-18T14:48:14.209Z,34.10
2018-06-18T14:50:43.720Z,34.16
2018-06-18T14:53:13.555Z,34.23
2018-06-18T14:55:44.613Z,34.18
2018-06-18T14:58:14.392Z,33.75
2018-06-18T15:00:44.267Z,33.77
2018-06-18T15:03:13.644Z,33.61
2018-06-18T15:05:43.498Z,33.63
2018-06-18T15:08:13.218Z,33.75
2018-06-18T15:10:48.106Z,33.87
2018-06-18T15:13:17.968Z,34.09
2018-06-18T15:15:53.283Z,33.95
2018-06-18T15:18:22.897Z,33.86
2018-06-18T15:20:54.887Z,33.63
2018-06-18T15:23:24.538Z,33.65
2018-06-18T15:25:55.472Z,33.20
2018-06-18T15:28:26.191Z,32.93
2018-06-18T15:30:56.075Z,32.99
2018-06-18T15:33:25.876Z,32.75
2018-06-18T15:35:55.658Z,32.85
2018-06-18T15:38:25.346Z,33.52
2018-06-18T15:40:55.083Z,33.62
2018-06-18T15:43:24.924Z,33.75
2018-06-18T15:45:55.666Z,33.36
2018-06-18T15:48:25.457Z,33.36
2018-06-18T15:50:55.581Z,33.70
2018-06-18T15:53:25.200Z,33.94
2018-06-18T15:55:54.987Z,33.55
2018-06-18T15:58:24.675Z,33.41
2018-06-18T16:00:54.608Z,33.45
2018-06-18T16:03:24.649Z,33.22
2018-06-18T16:05:54.796Z,33.15
2018-06-18T16:08:24.860Z,32.58
2018-06-18T16:10:54.660Z,32.62
2018-06-18T16:13:24.668Z,33.11
2018-06-18T16:15:54.795Z,33.50
2018-06-18T16:18:24.762Z,33.24
2018-06-18T16:20:54.916Z,33.14
2018-06-18T16:23:24.897Z,33.34
2018-06-18T16:25:54.820Z,32.99
2018-06-18T16:28:25.003Z,32.99
2018-06-18T16:30:54.820Z,32.99
2018-06-18T16:33:24.894Z,33.26
2018-06-18T16:35:54.941Z,32.76
2018-06-18T16:38:24.862Z,32.74
2018-06-18T16:40:55.418Z,32.25
2018-06-18T16:43:25.191Z,31.57
2018-06-18T16:45:55.473Z,31.68
2018-06-18T16:48:25.747Z,31.90
2018-06-18T16:53:31.712Z,32.16
2018-06-18T16:56:02.069Z,32.17
2018-06-18T16:58:32.463Z,32.05
2018-06-18T17:01:02.198Z,31.73
2018-06-18T17:03:31.994Z,31.88
2018-06-18T17:06:01.959Z,32.26
2018-06-18T17:08:31.367Z,32.79
2018-06-18T17:11:00.991Z,33.10
2018-06-18T17:13:30.560Z,33.31
2018-06-18T17:15:59.991Z,33.24
2018-06-18T17:18:29.542Z,33.51
2018-06-18T17:20:59.632Z,33.08
2018-06-18T17:23:29.506Z,32.94
2018-06-18T17:25:59.264Z,32.74
2018-06-18T17:28:29.165Z,32.07
2018-06-18T17:30:58.854Z,31.64
2018-06-18T17:33:28.620Z,31.08
2018-06-18T17:35:58.408Z,30.89
2018-06-18T17:38:28.076Z,30.73
2018-06-18T17:40:58.064Z,30.66
2018-06-18T17:43:27.572Z,30.55
2018-06-18T17:45:57.976Z,30.48
2018-06-18T17:48:27.629Z,30.27
2018-06-18T17:56:07.629Z,29.34
2018-06-18T17:58:37.396Z,29.25
2018-06-18T18:01:07.104Z,29.13
2018-06-18T18:03:36.727Z,29.18
2018-06-18T18:06:06.483Z,29.04
2018-06-18T18:08:36.296Z,29.15
2018-06-18T18:11:05.656Z,29.18
2018-06-18T18:13:35.258Z,28.96
2018-06-18T18:16:05.428Z,28.99
2018-06-18T18:18:35.153Z,29.01
2018-06-18T18:21:04.467Z,29.03
2018-06-18T18:23:34.120Z,28.86
2018-06-18T18:26:03.808Z,28.98
2018-06-18T18:28:33.520Z,28.86
2018-06-18T18:31:03.530Z,28.75
2018-06-18T18:33:33.272Z,28.74
2018-06-18T18:36:03.224Z,28.59
2018-06-18T18:38:34.037Z,28.51
2018-06-18T18:41:05.655Z,28.33
2018-06-18T18:43:35.781Z,28.21
2018-06-18T18:46:05.733Z,28.22
2018-06-18T18:48:35.719Z,28.12
2018-06-18T18:51:06.433Z,28.02
2018-06-18T18:53:36.061Z,27.77
2018-06-18T18:56:16.898Z,27.75
2018-06-18T18:59:26.977Z,27.57
2018-06-18T19:01:56.863Z,27.22
2018-06-18T19:04:34.800Z,27.21
2018-06-18T19:07:04.499Z,27.23
2018-06-18T19:09:37.287Z,27.00
2018-06-18T19:12:06.980Z,27.07
2018-06-18T19:14:36.691Z,27.10
2018-06-18T19:17:06.411Z,26.97
2018-06-18T19:19:42.937Z,26.69
2018-06-18T19:22:13.104Z,26.57
2018-06-18T19:24:43.275Z,26.38
2018-06-18T19:27:13.967Z,26.31
2018-06-18T19:29:43.697Z,26.38
2018-06-18T19:32:13.343Z,26.37
2018-06-18T19:34:42.957Z,26.45
2018-06-18T19:37:12.395Z,26.35
2018-06-18T19:39:44.385Z,26.23
2018-06-18T19:42:14.403Z,26.03
2018-06-18T19:44:44.732Z,26.04
2018-06-18T19:47:53.432Z,25.92
2018-06-18T19:50:23.124Z,25.68
2018-06-18T19:52:55.274Z,25.71
2018-06-18T19:55:26.820Z,25.73
2018-06-18T19:57:56.525Z,25.80
2018-06-18T20:03:05.149Z,25.57
2018-06-18T20:05:34.911Z,25.41
2018-06-18T20:08:08.788Z,25.33
2018-06-18T20:10:38.507Z,25.33
2018-06-18T20:13:08.350Z,25.51
2018-06-18T20:15:38.224Z,25.28
2018-06-18T20:18:08.530Z,25.14
2018-06-18T20:20:38.296Z,25.10
2018-06-18T20:23:10.352Z,25.15
2018-06-18T20:25:44.304Z,25.12
2018-06-18T20:28:14.358Z,25.03
2018-06-18T20:30:45.109Z,24.86
2018-06-18T20:33:16.504Z,24.92
2018-06-18T20:35:52.464Z,24.86
2018-06-18T20:38:22.355Z,24.80
2018-06-18T20:40:52.195Z,24.82
2018-06-18T20:43:23.160Z,24.75
2018-06-18T20:45:52.836Z,24.89
2018-06-18T20:48:22.655Z,25.01
2018-06-18T20:50:52.320Z,25.11
2018-06-18T20:53:21.961Z,24.95
2018-06-18T20:55:51.816Z,24.77
2018-06-18T20:58:21.667Z,24.74
2018-06-18T21:00:51.293Z,24.57
2018-06-18T21:03:21.060Z,24.65
2018-06-18T21:05:51.172Z,24.54
2018-06-18T21:08:20.998Z,24.36
2018-06-18T21:10:50.423Z,24.45
2018-06-18T21:13:19.946Z,24.53
2018-06-18T21:15:49.751Z,24.31
2018-06-18T21:18:19.425Z,24.23
2018-06-18T21:20:49.149Z,24.21
2018-06-18T21:23:18.928Z,24.29
2018-06-18T21:25:48.601Z,24.14
2018-06-18T21:28:18.600Z,23.98
2018-06-18T21:30:48.497Z,23.84
2018-06-18T21:33:18.239Z,23.65
2018-06-18T21:35:47.852Z,23.69
2018-06-18T21:38:18.344Z,23.72
2018-06-18T21:40:48.098Z,23.86
2018-06-18T21:43:17.720Z,23.77
2018-06-18T21:45:47.577Z,23.71
2018-06-18T21:48:24.039Z,23.61
2018-06-18T21:50:53.806Z,23.61
2018-06-18T21:53:23.478Z,23.42
2018-06-18T21:55:53.182Z,23.49
2018-06-18T21:58:22.914Z,23.36
2018-06-18T22:00:53.472Z,23.43
2018-06-18T22:03:23.226Z,23.39
2018-06-18T22:05:53.018Z,23.28
2018-06-18T22:08:23.974Z,23.19
2018-06-18T22:10:53.664Z,23.13
2018-06-18T22:13:23.290Z,23.08
2018-06-18T22:15:52.981Z,23.24
2018-06-18T22:18:22.626Z,23.18
2018-06-18T22:20:52.349Z,23.16
2018-06-18T22:23:22.004Z,23.02
2018-06-18T22:25:51.679Z,22.98
2018-06-18T22:28:36.230Z,22.93
2018-06-18T22:31:06.553Z,22.89
2018-06-18T22:33:36.944Z,22.82
2018-06-18T22:36:06.673Z,22.83
2018-06-18T22:38:36.403Z,22.91
2018-06-18T22:41:05.771Z,22.89
2018-06-18T22:43:35.522Z,22.78
2018-06-18T22:46:05.172Z,22.74
2018-06-18T22:48:35.113Z,22.65
2018-06-18T22:51:05.356Z,22.62
2018-06-18T22:53:35.013Z,22.52
2018-06-18T22:56:04.673Z,22.62
2018-06-18T22:58:34.435Z,22.61
2018-06-18T23:01:04.150Z,22.62
2018-06-18T23:03:33.787Z,22.48
2018-06-18T23:06:03.670Z,22.42
2018-06-18T23:08:33.915Z,22.48
2018-06-18T23:11:03.964Z,22.36
2018-06-18T23:13:35.397Z,22.20
2018-06-18T23:16:06.470Z,22.23
2018-06-18T23:18:36.194Z,22.35
2018-06-18T23:21:06.009Z,22.23
2018-06-18T23:23:35.843Z,22.18
2018-06-18T23:26:05.629Z,22.20
2018-06-18T23:28:54.483Z,22.13
2018-06-18T23:31:23.948Z,21.91
2018-06-18T23:33:53.550Z,21.87
2018-06-18T23:36:23.223Z,21.74
2018-06-18T23:38:53.081Z,21.71
2018-06-18T23:41:24.253Z,21.80
2018-06-18T23:43:54.021Z,22.05
2018-06-18T23:46:23.509Z,21.87
2018-06-18T23:48:53.175Z,21.89
2018-06-18T23:51:23.392Z,21.82
2018-06-18T23:53:53.264Z,21.69
2018-06-18T23:56:23.494Z,21.57
2018-06-18T23:58:53.355Z,21.65
